createdAt,value
2023-03-22T00:00:15.675Z,8.10
2023-03-22T00:02:43.323Z,8.10
2023-03-22T00:05:11.075Z,8.10
2023-03-22T00:07:41.183Z,8.10
2023-03-22T00:10:09.374Z,8.10
2023-03-22T00:12:36.898Z,8.10
2023-03-22T00:15:04.840Z,8.10
2023-03-22T00:17:33.122Z,8.10
2023-03-22T00:20:00.615Z,8.10
2023-03-22T00:22:28.020Z,8.10
2023-03-22T00:24:55.567Z,8.00
2023-03-22T00:27:23.009Z,8.00
2023-03-22T00:29:52.869Z,7.90
2023-03-22T00:32:20.599Z,7.90
2023-03-22T00:34:48.124Z,7.90
2023-03-22T00:37:18.803Z,7.90
2023-03-22T00:39:46.440Z,7.90
2023-03-22T00:42:13.904Z,7.90
2023-03-22T00:44:41.579Z,7.90
2023-03-22T00:47:09.055Z,7.90
2023-03-22T00:49:37.730Z,7.90
2023-03-22T00:52:05.583Z,8.00
2023-03-22T00:54:33.093Z,8.00
2023-03-22T00:57:00.786Z,7.90
2023-03-22T00:59:28.602Z,8.00
2023-03-22T01:01:58.432Z,8.00
2023-03-22T01:04:26.473Z,8.00
2023-03-22T01:06:59.558Z,8.00
2023-03-22T01:09:29.744Z,8.00
2023-03-22T01:12:02.941Z,8.00
2023-03-22T01:14:31.900Z,7.90
2023-03-22T01:16:59.528Z,7.90
2023-03-22T01:19:30.134Z,8.00
2023-03-22T01:21:57.939Z,8.00
2023-03-22T01:24:25.582Z,8.00
2023-03-22T01:26:53.072Z,8.00
2023-03-22T01:29:20.711Z,8.00
2023-03-22T01:31:48.191Z,8.00
2023-03-22T01:34:15.687Z,8.00
2023-03-22T01:36:43.356Z,8.00
2023-03-22T01:39:11.629Z,8.10
2023-03-22T01:41:39.298Z,8.00
2023-03-22T01:44:16.552Z,8.10
2023-03-22T01:46:47.076Z,8.10
2023-03-22T01:49:34.983Z,8.10
2023-03-22T01:52:14.791Z,8.10
2023-03-22T01:54:48.806Z,8.10
2023-03-22T01:57:16.711Z,8.00
2023-03-22T01:59:45.195Z,7.90
2023-03-22T02:02:20.256Z,7.90
2023-03-22T02:04:58.269Z,7.90
2023-03-22T02:07:28.863Z,7.80
2023-03-22T02:09:57.035Z,7.80
2023-03-22T02:12:51.955Z,7.70
2023-03-22T02:15:30.402Z,7.70
2023-03-22T02:18:24.498Z,7.70
2023-03-22T02:21:12.972Z,7.70
2023-03-22T02:24:10.095Z,7.70
2023-03-22T02:27:05.130Z,7.70
2023-03-22T02:30:14.693Z,7.70
2023-03-22T02:33:10.343Z,7.70
2023-03-22T02:35:43.432Z,7.80
2023-03-22T02:38:52.726Z,7.70
2023-03-22T02:41:53.933Z,7.70
2023-03-22T02:45:01.676Z,7.60
2023-03-22T02:47:55.514Z,7.60
2023-03-22T02:50:33.434Z,7.60
2023-03-22T02:53:21.431Z,7.60
2023-03-22T02:56:01.555Z,7.60
2023-03-22T02:58:46.139Z,7.60
2023-03-22T03:01:40.185Z,7.70
2023-03-22T03:04:14.884Z,7.60
2023-03-22T03:06:47.327Z,7.60
2023-03-22T03:09:18.475Z,7.60
2023-03-22T03:11:52.780Z,7.70
2023-03-22T03:14:33.317Z,7.80
2023-03-22T03:17:57.755Z,7.90
2023-03-22T03:20:49.439Z,7.90
2023-03-22T03:23:29.053Z,7.90
2023-03-22T03:26:17.730Z,7.90
2023-03-22T03:29:30.366Z,8.00
2023-03-22T03:32:17.285Z,7.90
2023-03-22T03:35:00.002Z,8.00
2023-03-22T03:37:39.498Z,8.00
2023-03-22T03:40:34.300Z,7.90
2023-03-22T03:43:04.642Z,7.90
2023-03-22T03:45:33.177Z,7.80
2023-03-22T03:48:06.926Z,7.70
2023-03-22T03:50:35.483Z,7.70
2023-03-22T03:53:03.807Z,7.80
2023-03-22T03:55:32.225Z,7.80
2023-03-22T03:57:59.713Z,7.70
2023-03-22T04:00:27.253Z,7.80
2023-03-22T04:02:55.107Z,7.90
2023-03-22T04:05:22.557Z,7.90
2023-03-22T04:07:50.062Z,8.00
2023-03-22T04:10:17.696Z,7.90
2023-03-22T04:12:45.250Z,8.00
2023-03-22T04:15:13.259Z,8.00
2023-03-22T04:17:41.600Z,8.00
2023-03-22T04:20:11.215Z,8.00
2023-03-22T04:22:40.025Z,8.00
2023-03-22T04:25:12.185Z,7.80
2023-03-22T04:27:41.675Z,7.60
2023-03-22T04:30:19.125Z,7.50
2023-03-22T04:32:48.001Z,7.40
2023-03-22T04:35:16.499Z,7.40
2023-03-22T04:37:44.685Z,7.50
2023-03-22T04:40:17.455Z,7.40
2023-03-22T04:42:45.770Z,7.50
2023-03-22T04:45:14.512Z,7.50
2023-03-22T04:47:42.178Z,7.50
2023-03-22T04:50:10.174Z,7.40
2023-03-22T04:52:37.628Z,7.40
2023-03-22T04:55:05.651Z,7.40
2023-03-22T04:57:35.005Z,7.40
2023-03-22T05:00:06.274Z,7.40
2023-03-22T05:02:33.803Z,7.30
2023-03-22T05:05:01.783Z,7.30
2023-03-22T05:07:29.492Z,7.20
2023-03-22T05:09:56.962Z,7.20
2023-03-22T05:12:24.443Z,7.20
2023-03-22T05:14:51.982Z,7.30
2023-03-22T05:17:19.520Z,7.40
2023-03-22T05:19:47.940Z,7.50
2023-03-22T05:22:15.419Z,7.50
2023-03-22T05:24:42.954Z,7.50
2023-03-22T05:27:11.086Z,7.40
2023-03-22T05:29:38.500Z,7.50
2023-03-22T05:32:06.478Z,7.50
2023-03-22T05:34:36.095Z,7.70
2023-03-22T05:37:04.154Z,7.80
2023-03-22T05:39:32.160Z,7.60
2023-03-22T05:41:59.643Z,7.60
2023-03-22T05:44:27.160Z,7.60
2023-03-22T05:46:54.673Z,7.60
2023-03-22T05:49:22.142Z,7.60
2023-03-22T05:51:50.820Z,7.60
2023-03-22T05:54:18.284Z,7.80
2023-03-22T05:56:46.036Z,7.90
2023-03-22T05:59:13.584Z,7.90
2023-03-22T06:01:41.249Z,7.80
2023-03-22T06:04:08.751Z,7.80
2023-03-22T06:06:36.243Z,8.00
2023-03-22T06:09:16.569Z,8.00
2023-03-22T06:11:45.064Z,8.20
2023-03-22T06:14:12.879Z,8.30
2023-03-22T06:16:41.298Z,8.50
2023-03-22T06:19:08.899Z,8.70
2023-03-22T06:21:36.372Z,8.80
2023-03-22T06:24:04.025Z,8.90
2023-03-22T06:26:31.654Z,8.90
2023-03-22T06:28:59.164Z,9.00
2023-03-22T06:31:26.600Z,9.00
2023-03-22T06:33:55.850Z,9.10
2023-03-22T06:36:23.454Z,9.20
2023-03-22T06:38:50.919Z,9.30
2023-03-22T06:41:18.647Z,9.40
2023-03-22T06:43:46.389Z,9.40
2023-03-22T06:46:14.410Z,9.30
2023-03-22T06:48:42.100Z,9.40
2023-03-22T06:51:09.563Z,9.40
2023-03-22T06:53:37.077Z,9.50
2023-03-22T06:56:05.626Z,9.50
2023-03-22T06:58:33.185Z,9.70
2023-03-22T07:01:00.837Z,9.90
2023-03-22T07:03:28.531Z,10.10
2023-03-22T07:06:04.400Z,10.10
2023-03-22T07:08:31.946Z,10.20
2023-03-22T07:11:00.413Z,10.20
2023-03-22T07:13:28.206Z,10.30
2023-03-22T07:16:01.359Z,10.30
2023-03-22T07:18:30.780Z,10.50
2023-03-22T07:20:58.270Z,10.50
2023-03-22T07:23:26.188Z,10.70
2023-03-22T07:25:56.093Z,10.70
2023-03-22T07:28:23.861Z,10.70
2023-03-22T07:31:01.741Z,10.70
2023-03-22T07:33:29.681Z,10.80
2023-03-22T07:35:57.198Z,10.70
2023-03-22T07:38:25.126Z,10.70
2023-03-22T07:40:56.916Z,10.60
2023-03-22T07:43:24.975Z,10.70
2023-03-22T07:45:53.337Z,10.70
2023-03-22T07:48:24.031Z,10.70
2023-03-22T07:50:56.674Z,10.90
2023-03-22T07:53:24.180Z,11.10
2023-03-22T07:55:52.375Z,11.30
2023-03-22T07:58:21.346Z,11.50
2023-03-22T08:00:50.535Z,11.70
2023-03-22T08:03:18.046Z,11.90
2023-03-22T08:05:45.676Z,11.90
2023-03-22T08:08:13.749Z,12.10
2023-03-22T08:10:41.523Z,12.10
2023-03-22T08:13:09.304Z,12.30
2023-03-22T08:15:38.828Z,12.40
2023-03-22T08:18:08.828Z,12.60
2023-03-22T08:20:38.568Z,12.80
2023-03-22T08:23:08.166Z,12.80
2023-03-22T08:25:37.265Z,12.90
2023-03-22T08:28:04.894Z,13.10
2023-03-22T08:30:33.379Z,13.00
2023-03-22T08:33:01.225Z,13.00
2023-03-22T08:35:28.785Z,12.90
2023-03-22T08:37:57.361Z,12.90
2023-03-22T08:40:24.875Z,13.20
2023-03-22T08:42:52.418Z,13.40
2023-03-22T08:45:20.000Z,13.60
2023-03-22T08:47:47.480Z,13.60
2023-03-22T08:50:15.100Z,13.50
2023-03-22T08:52:42.636Z,13.10
2023-03-22T08:55:10.702Z,13.00
2023-03-22T08:57:38.943Z,13.10
2023-03-22T09:00:07.866Z,13.20
2023-03-22T09:02:35.481Z,13.30
2023-03-22T09:05:02.940Z,13.20
2023-03-22T09:07:30.673Z,13.10
2023-03-22T09:09:58.187Z,13.00
2023-03-22T09:12:26.400Z,13.10
2023-03-22T09:14:55.769Z,13.30
2023-03-22T09:17:24.331Z,13.40
2023-03-22T09:20:02.737Z,13.40
2023-03-22T09:22:37.508Z,13.60
2023-03-22T09:25:06.314Z,13.80
2023-03-22T09:27:34.348Z,13.90
2023-03-22T09:30:01.835Z,13.90
2023-03-22T09:32:29.310Z,14.10
2023-03-22T09:34:56.811Z,14.20
2023-03-22T09:37:30.448Z,14.40
2023-03-22T09:39:58.458Z,14.60
2023-03-22T09:42:50.966Z,14.70
2023-03-22T09:45:33.101Z,14.10
2023-03-22T09:48:01.649Z,14.10
2023-03-22T09:50:33.394Z,14.40
2023-03-22T09:53:01.429Z,14.30
2023-03-22T09:55:52.748Z,14.20
2023-03-22T09:58:41.836Z,14.30
2023-03-22T10:01:25.481Z,14.50
2023-03-22T10:04:11.551Z,14.40
2023-03-22T10:06:40.535Z,14.10
2023-03-22T10:09:34.995Z,14.00
2023-03-22T10:12:16.711Z,14.30
2023-03-22T10:14:58.986Z,14.50
2023-03-22T10:17:30.149Z,14.70
2023-03-22T10:20:09.670Z,15.10
2023-03-22T10:22:42.258Z,15.50
2023-03-22T10:25:16.206Z,15.70
2023-03-22T10:27:44.158Z,15.40
2023-03-22T10:30:27.831Z,15.00
2023-03-22T10:33:03.375Z,15.00
2023-03-22T10:35:32.358Z,15.00
2023-03-22T10:38:04.397Z,15.40
2023-03-22T10:40:35.377Z,15.20
2023-03-22T10:43:37.484Z,15.20
2023-03-22T10:46:09.216Z,15.10
2023-03-22T10:48:42.671Z,15.30
2023-03-22T10:51:46.402Z,15.30
2023-03-22T10:54:17.307Z,15.10
2023-03-22T10:56:45.906Z,14.90
2023-03-22T10:59:58.867Z,15.40
2023-03-22T11:02:32.957Z,15.90
2023-03-22T11:05:04.586Z,15.90
2023-03-22T11:07:45.077Z,16.00
2023-03-22T11:10:30.178Z,16.50
2023-03-22T11:13:14.620Z,16.20
2023-03-22T11:15:54.984Z,16.40
2023-03-22T11:18:23.218Z,16.20
2023-03-22T11:21:01.427Z,16.40
2023-03-22T11:23:34.305Z,16.30
2023-03-22T11:26:13.210Z,16.60
2023-03-22T11:28:51.333Z,16.40
2023-03-22T11:31:21.378Z,16.80
2023-03-22T11:34:02.513Z,17.00
2023-03-22T11:36:30.200Z,17.00
2023-03-22T11:39:07.448Z,17.10
2023-03-22T11:41:40.287Z,16.50
2023-03-22T11:44:16.249Z,16.60
2023-03-22T11:46:58.174Z,16.40
2023-03-22T11:49:51.473Z,16.40
2023-03-22T11:52:25.124Z,16.80
2023-03-22T11:54:54.800Z,17.30
2023-03-22T11:57:27.043Z,17.70
2023-03-22T12:00:21.584Z,17.60
2023-03-22T12:03:14.301Z,17.50
2023-03-22T12:05:45.338Z,16.90
2023-03-22T12:08:43.075Z,16.50
2023-03-22T12:11:40.036Z,16.50
2023-03-22T12:14:33.330Z,17.00
2023-03-22T12:17:21.615Z,17.00
2023-03-22T12:20:12.958Z,16.30
2023-03-22T12:22:51.260Z,16.50
2023-03-22T12:25:25.560Z,16.80
2023-03-22T12:28:27.207Z,17.00
2023-03-22T12:31:05.333Z,17.60
2023-03-22T12:33:52.808Z,17.40
2023-03-22T12:37:00.772Z,17.40
2023-03-22T12:40:14.645Z,17.10
2023-03-22T12:43:20.827Z,17.10
2023-03-22T12:46:03.538Z,17.20
2023-03-22T12:48:45.999Z,17.60
2023-03-22T12:51:15.617Z,18.00
2023-03-22T12:53:48.772Z,18.60
2023-03-22T12:56:42.791Z,19.20
2023-03-22T12:59:26.772Z,18.50
2023-03-22T13:02:37.056Z,18.40
2023-03-22T13:05:09.470Z,19.10
2023-03-22T13:07:52.304Z,19.30
2023-03-22T13:10:32.582Z,18.80
2023-03-22T13:13:24.464Z,18.40
2023-03-22T13:16:11.340Z,17.90
2023-03-22T13:18:43.939Z,18.50
2023-03-22T13:21:22.918Z,18.10
2023-03-22T13:24:10.646Z,17.00
2023-03-22T13:26:54.030Z,17.00
2023-03-22T13:29:33.116Z,17.20
2023-03-22T13:32:30.256Z,16.80
2023-03-22T13:34:58.074Z,17.00
2023-03-22T13:37:31.848Z,17.10
2023-03-22T13:40:02.465Z,16.80
2023-03-22T13:42:39.251Z,17.00
2023-03-22T13:45:32.495Z,17.30
2023-03-22T13:48:24.428Z,17.40
2023-03-22T13:50:53.508Z,17.60
2023-03-22T13:53:34.001Z,17.70
2023-03-22T13:56:07.497Z,17.60
2023-03-22T13:58:54.485Z,17.80
2023-03-22T14:01:37.974Z,17.80
2023-03-22T14:04:12.484Z,17.30
2023-03-22T14:07:08.653Z,17.50
2023-03-22T14:09:53.450Z,17.70
2023-03-22T14:12:30.601Z,17.90
2023-03-22T14:15:02.712Z,18.40
2023-03-22T14:17:44.603Z,19.00
2023-03-22T14:20:19.452Z,18.90
